Estación Meteorológica Peña el Pijo (Robertgarden) [ 02/02/23 21:38:57 CET ]

Fecha Hora Presion(HPa) Temp (°C) Humedad % Rocio (°C) Viento ( m/s) Direccion Lluvia 1Hora(mm) Lluvia 24H(mm) LLuvia Total(mm)
2012-Sep-02 01:01:12 1013.700 12.4 42 -0.2         178.19
2012-Sep-02 02:01:14 1013.400 11.5 43 -0.7         178.19
2012-Sep-02 03:04:28 1013.700 11.3 43 -0.9         178.19
2012-Sep-02 04:01:13 1013.600 11.2 50 1.2         178.19
2012-Sep-02 05:01:16 1013.300 10.2 56 1.8         178.19
2012-Sep-02 06:01:17 1013.200 9.1 62 2.2         178.19
2012-Sep-02 07:01:12 1013.200 8.4 66 2.4         178.19
2012-Sep-02 08:01:16 1013.700 8.1 70 3.0         178.19
2012-Sep-02 09:01:19 1013.700 10.6 67 4.7         178.19
2012-Sep-02 10:01:13 1014.100 14.7 68 8.8         178.19
2012-Sep-02 11:01:12 1014.700 17.6 57 8.9         178.19
2012-Sep-02 12:01:15 1014.700 20.2 49 9.2         178.19
2012-Sep-02 13:01:12 1014.600 22.3 41 8.4 1.8 E     178.19
2012-Sep-02 14:01:12 1014.200 25.3 37 9.5         178.19
2012-Sep-02 15:01:13 1013.800 27.4 31 8.8 0.2 ENE     178.19
2012-Sep-02 16:01:16 1013.300 27.8 29 8.1 0.8 ENE     178.19
2012-Sep-02 17:01:12 1013.100 25.5 31 7.1         178.19
2012-Sep-02 18:01:13 1013.200 25.0 33 7.6         178.19
2012-Sep-02 19:01:14 1013.300 23.1 38 8.0 1.9 ENE     178.19
2012-Sep-02 20:01:18 1013.800 20.3 47 8.6 2.9 NE     178.19
2012-Sep-02 21:01:12 1014.600 18.0 58 9.6         178.19
2012-Sep-02 22:01:13 1015.200 16.5 63 9.4         178.19
2012-Sep-02 23:01:13 1015.400 14.9 68 9.0         178.19

Temperatura Máxima:27°    Temperatura Mínima:
Presión Máxima:1015.400 Hpa    Presión Mínima:1013.100 Hpa


Volver